createdAt,value
2019-02-04T00:00:48.031Z,99.90
2019-02-04T00:03:17.811Z,99.90
2019-02-04T00:05:46.989Z,99.90
2019-02-04T00:08:16.159Z,99.90
2019-02-04T00:10:45.689Z,99.90
2019-02-04T00:13:14.837Z,99.90
2019-02-04T00:15:44.007Z,99.90
2019-02-04T00:18:13.217Z,99.90
2019-02-04T00:20:42.410Z,99.90
2019-02-04T00:23:11.557Z,99.90
2019-02-04T00:25:41.016Z,99.90
2019-02-04T00:28:10.104Z,99.90
2019-02-04T00:30:39.296Z,99.90
2019-02-04T00:33:08.400Z,99.90
2019-02-04T00:35:37.603Z,99.90
2019-02-04T00:38:06.764Z,99.90
2019-02-04T00:40:35.859Z,99.90
2019-02-04T00:43:05.059Z,99.90
2019-02-04T00:45:34.251Z,99.90
2019-02-04T00:50:40.312Z,99.90
2019-02-04T00:53:09.779Z,99.90
2019-02-04T00:55:38.913Z,99.90
2019-02-04T00:58:08.080Z,99.90
2019-02-04T01:00:37.231Z,99.90
2019-02-04T01:03:06.332Z,99.90
2019-02-04T01:05:35.424Z,99.90
2019-02-04T01:08:05.161Z,99.90
2019-02-04T01:10:34.339Z,99.90
2019-02-04T01:13:03.531Z,99.90
2019-02-04T01:15:32.659Z,99.90
2019-02-04T01:18:01.820Z,99.90
2019-02-04T01:20:31.056Z,99.90
2019-02-04T01:23:00.227Z,99.90
2019-02-04T01:25:29.420Z,99.90
2019-02-04T01:27:58.547Z,99.90
2019-02-04T01:30:27.620Z,99.90
2019-02-04T01:32:56.711Z,99.90
2019-02-04T01:35:26.223Z,99.90
2019-02-04T01:37:55.332Z,99.90
2019-02-04T01:40:25.655Z,99.90
2019-02-04T01:42:55.211Z,99.90
2019-02-04T01:45:24.587Z,99.90
2019-02-04T01:47:53.779Z,99.90
2019-02-04T01:50:23.608Z,99.90
2019-02-04T01:52:52.796Z,99.90
2019-02-04T01:55:21.991Z,99.90
2019-02-04T01:57:53.212Z,99.90
2019-02-04T02:00:28.039Z,99.90
2019-02-04T02:02:57.583Z,99.90
2019-02-04T02:05:26.663Z,99.90
2019-02-04T02:07:55.759Z,99.90
2019-02-04T02:10:25.264Z,99.90
2019-02-04T02:12:54.540Z,99.90
2019-02-04T02:15:23.728Z,99.90
2019-02-04T02:17:52.916Z,99.90
2019-02-04T02:20:24.071Z,99.90
2019-02-04T02:22:53.229Z,99.90
2019-02-04T02:25:22.399Z,99.90
2019-02-04T02:27:51.544Z,99.90
2019-02-04T02:30:23.652Z,99.90
2019-02-04T02:32:52.827Z,99.90
2019-02-04T02:35:22.010Z,99.90
2019-02-04T02:37:51.195Z,99.90
2019-02-04T02:40:25.990Z,99.90
2019-02-04T02:42:55.265Z,99.90
2019-02-04T02:45:24.476Z,99.90
2019-02-04T02:47:53.575Z,99.90
2019-02-04T02:50:22.695Z,99.90
2019-02-04T02:52:51.826Z,99.90
2019-02-04T02:55:21.026Z,99.90
2019-02-04T02:57:50.273Z,99.90
2019-02-04T03:00:21.565Z,99.90
2019-02-04T03:02:50.755Z,99.90
2019-02-04T03:05:19.889Z,99.90
2019-02-04T03:07:49.066Z,99.90
2019-02-04T03:10:24.235Z,99.90
2019-02-04T03:12:53.420Z,99.90
2019-02-04T03:15:22.595Z,99.90
2019-02-04T03:17:52.705Z,99.90
2019-02-04T03:20:22.001Z,99.90
2019-02-04T03:22:51.392Z,99.90
2019-02-04T03:25:20.696Z,99.90
2019-02-04T03:27:49.984Z,99.90
2019-02-04T03:30:27.419Z,99.90
2019-02-04T03:32:56.616Z,99.90
2019-02-04T03:35:25.807Z,99.90
2019-02-04T03:37:55.070Z,99.90
2019-02-04T03:40:26.047Z,99.90
2019-02-04T03:42:55.260Z,99.90
2019-02-04T03:45:24.456Z,99.90
2019-02-04T03:48:04.277Z,99.90
2019-02-04T03:50:24.673Z,99.90
2019-02-04T03:52:56.006Z,99.90
2019-02-04T03:55:25.169Z,99.90
2019-02-04T03:57:54.367Z,99.90
2019-02-04T04:00:28.820Z,99.90
2019-02-04T04:02:58.007Z,99.90
2019-02-04T04:05:27.506Z,99.90
2019-02-04T04:07:56.704Z,99.90
2019-02-04T04:10:25.907Z,99.90
2019-02-04T04:12:55.087Z,99.90
2019-02-04T04:15:24.177Z,99.90
2019-02-04T04:17:53.374Z,99.90
2019-02-04T04:20:22.886Z,99.90
2019-02-04T04:22:52.084Z,99.90
2019-02-04T04:25:21.263Z,99.90
2019-02-04T04:27:50.388Z,99.90
2019-02-04T04:30:24.347Z,99.90
2019-02-04T04:32:53.893Z,99.90
2019-02-04T04:35:23.056Z,99.90
2019-02-04T04:37:52.299Z,99.90
2019-02-04T04:40:21.391Z,99.90
2019-02-04T04:42:50.577Z,99.90
2019-02-04T04:45:21.487Z,99.90
2019-02-04T04:47:50.992Z,99.90
2019-02-04T04:50:20.151Z,99.90
2019-02-04T04:52:49.351Z,99.90
2019-02-04T04:55:20.620Z,99.90
2019-02-04T04:57:49.797Z,99.90
2019-02-04T05:00:23.748Z,99.90
2019-02-04T05:02:52.936Z,99.90
2019-02-04T05:05:23.939Z,99.90
2019-02-04T05:07:53.168Z,99.90
2019-02-04T05:10:22.406Z,99.90
2019-02-04T05:12:51.620Z,99.90
2019-02-04T05:15:25.347Z,99.90
2019-02-04T05:17:54.475Z,99.90
2019-02-04T05:20:23.648Z,99.90
2019-02-04T05:22:52.891Z,99.90
2019-02-04T05:25:22.094Z,99.90
2019-02-04T05:27:51.337Z,99.90
2019-02-04T05:30:21.680Z,99.90
2019-02-04T05:32:50.799Z,99.90
2019-02-04T05:35:19.907Z,99.90
2019-02-04T05:37:49.108Z,99.90
2019-02-04T05:40:18.248Z,99.90
2019-02-04T05:42:47.832Z,99.90
2019-02-04T05:45:18.222Z,99.90
2019-02-04T05:47:47.400Z,99.90
2019-02-04T05:50:18.005Z,99.90
2019-02-04T05:52:47.440Z,99.90
2019-02-04T05:55:17.845Z,99.90
2019-02-04T05:57:47.162Z,99.90
2019-02-04T06:00:20.584Z,99.90
2019-02-04T06:02:49.759Z,99.90
2019-02-04T06:05:18.947Z,99.90
2019-02-04T06:07:48.231Z,99.90
2019-02-04T06:10:17.847Z,99.90
2019-02-04T06:12:47.019Z,99.90
2019-02-04T06:15:16.224Z,99.90
2019-02-04T06:17:45.419Z,99.90
2019-02-04T06:20:16.592Z,99.90
2019-02-04T06:22:45.760Z,99.90
2019-02-04T06:25:14.956Z,99.90
2019-02-04T06:27:44.156Z,99.90
2019-02-04T06:30:13.596Z,99.90
2019-02-04T06:32:42.817Z,99.90
2019-02-04T06:35:12.204Z,99.90
2019-02-04T06:37:41.411Z,99.90
2019-02-04T06:40:11.928Z,99.90
2019-02-04T06:42:41.027Z,99.90
2019-02-04T06:45:11.551Z,99.90
2019-02-04T06:47:40.753Z,99.90
2019-02-04T06:50:11.998Z,99.90
2019-02-04T06:52:41.383Z,99.90
2019-02-04T06:55:13.668Z,99.90
2019-02-04T06:57:42.845Z,99.90
2019-02-04T07:00:13.208Z,99.90
2019-02-04T07:02:42.412Z,99.90
2019-02-04T07:05:11.650Z,99.90
2019-02-04T07:07:40.845Z,99.90
2019-02-04T07:10:12.647Z,99.90
2019-02-04T07:12:41.873Z,99.90
2019-02-04T07:15:11.045Z,99.90
2019-02-04T07:17:40.267Z,99.90
2019-02-04T07:20:12.051Z,99.90
2019-02-04T07:22:41.275Z,99.90
2019-02-04T07:25:11.128Z,99.90
2019-02-04T07:27:40.310Z,99.90
2019-02-04T07:30:12.600Z,99.90
2019-02-04T07:32:41.791Z,99.90
2019-02-04T07:35:12.088Z,99.90
2019-02-04T07:37:41.309Z,99.90
2019-02-04T07:40:13.963Z,99.90
2019-02-04T07:42:43.084Z,99.90
2019-02-04T07:45:12.224Z,99.90
2019-02-04T07:47:41.310Z,99.90
2019-02-04T07:50:11.088Z,99.90
2019-02-04T07:52:40.256Z,99.90
2019-02-04T07:55:09.383Z,99.90
2019-02-04T07:57:38.558Z,99.90
2019-02-04T08:00:20.112Z,99.90
2019-02-04T08:02:49.436Z,99.90
2019-02-04T08:05:18.629Z,99.90
2019-02-04T08:07:47.808Z,99.90
2019-02-04T08:10:17.024Z,99.90
2019-02-04T08:12:46.232Z,99.90
2019-02-04T08:15:20.967Z,99.90
2019-02-04T08:17:50.200Z,99.90
2019-02-04T08:20:19.355Z,99.90
2019-02-04T08:22:48.459Z,99.90
2019-02-04T08:25:17.727Z,99.90
2019-02-04T08:27:46.912Z,99.90
2019-02-04T08:30:25.319Z,99.90
2019-02-04T08:32:54.500Z,99.90
2019-02-04T08:35:23.668Z,99.90
2019-02-04T08:37:52.847Z,99.90
2019-02-04T08:40:22.033Z,99.90
2019-02-04T08:42:52.092Z,92.70
2019-02-04T08:45:21.290Z,88.00
2019-02-04T08:47:50.784Z,88.40
2019-02-04T08:50:20.383Z,80.30
2019-02-04T08:52:49.603Z,76.20
2019-02-04T08:55:18.760Z,73.40
2019-02-04T08:57:48.015Z,69.90
2019-02-04T09:00:19.128Z,65.50
2019-02-04T09:02:48.327Z,64.40
2019-02-04T09:05:17.660Z,64.70
2019-02-04T09:07:46.834Z,62.60
2019-02-04T09:10:18.899Z,59.80
2019-02-04T09:12:48.267Z,58.70
2019-02-04T09:15:17.437Z,56.30
2019-02-04T09:17:46.637Z,56.30
2019-02-04T09:20:16.701Z,54.20
2019-02-04T09:22:45.951Z,52.20
2019-02-04T09:25:15.806Z,52.10
2019-02-04T09:27:45.000Z,53.20
2019-02-04T09:30:22.153Z,54.00
2019-02-04T09:32:51.316Z,53.10
2019-02-04T09:35:21.020Z,52.70
2019-02-04T09:37:50.223Z,51.40
2019-02-04T09:40:34.408Z,52.90
2019-02-04T09:43:03.573Z,51.10
2019-02-04T09:45:32.737Z,51.60
2019-02-04T09:48:01.954Z,52.70
2019-02-04T09:50:32.672Z,53.00
2019-02-04T09:53:01.851Z,52.80
2019-02-04T09:55:35.601Z,54.20
2019-02-04T09:58:25.556Z,53.30
2019-02-04T10:00:54.795Z,54.20
2019-02-04T10:03:23.968Z,52.90
2019-02-04T10:05:53.148Z,52.40
2019-02-04T10:08:22.259Z,52.20
2019-02-04T10:10:51.456Z,53.80
2019-02-04T10:13:20.637Z,53.90
2019-02-04T10:15:49.717Z,53.90
2019-02-04T10:18:19.308Z,53.40
2019-02-04T10:20:48.588Z,53.30
2019-02-04T10:23:17.848Z,52.50
2019-02-04T10:25:47.184Z,52.00
2019-02-04T10:28:16.389Z,51.80
2019-02-04T10:30:45.579Z,50.80
2019-02-04T10:33:15.223Z,51.50
2019-02-04T10:35:44.399Z,51.60
2019-02-04T10:38:16.209Z,52.30
2019-02-04T10:40:44.421Z,51.60
2019-02-04T10:43:13.614Z,51.60
2019-02-04T10:45:42.841Z,50.70
2019-02-04T10:48:12.327Z,50.80
2019-02-04T10:50:46.175Z,50.30
2019-02-04T10:53:12.553Z,51.80
2019-02-04T10:55:41.770Z,50.10
2019-02-04T10:58:12.172Z,50.50
2019-02-04T11:00:41.395Z,50.30
2019-02-04T11:03:10.748Z,51.20
2019-02-04T11:05:40.263Z,51.00
2019-02-04T11:08:10.207Z,51.60
2019-02-04T11:10:39.428Z,51.40
2019-02-04T11:13:18.041Z,51.30
2019-02-04T11:15:47.956Z,50.40
2019-02-04T11:18:17.305Z,51.70
2019-02-04T11:20:57.797Z,49.70
2019-02-04T11:23:17.612Z,50.30
2019-02-04T11:25:46.995Z,48.30
2019-02-04T11:28:16.662Z,47.90
2019-02-04T11:31:07.583Z,47.20
2019-02-04T11:33:36.761Z,48.00
2019-02-04T11:36:06.016Z,47.90
2019-02-04T11:38:35.554Z,48.20
2019-02-04T11:41:04.836Z,45.90
2019-02-04T11:43:34.065Z,48.00
2019-02-04T11:46:03.276Z,47.10
2019-02-04T11:48:32.465Z,47.70
2019-02-04T11:51:09.337Z,48.50
2019-02-04T11:53:33.432Z,47.20
2019-02-04T11:56:02.667Z,47.60
2019-02-04T11:58:32.905Z,48.00
2019-02-04T12:01:02.095Z,47.80
2019-02-04T12:03:31.176Z,46.20
2019-02-04T12:06:00.359Z,47.20
2019-02-04T12:08:29.832Z,48.50
2019-02-04T12:11:14.587Z,48.90
2019-02-04T12:13:43.869Z,48.00
2019-02-04T12:16:13.048Z,48.60
2019-02-04T12:18:42.257Z,49.40
2019-02-04T12:21:21.111Z,49.00
2019-02-04T12:23:42.304Z,48.40
2019-02-04T12:26:11.495Z,49.70
2019-02-04T12:28:40.602Z,49.00
2019-02-04T12:31:09.831Z,49.50
2019-02-04T12:33:39.312Z,49.90
2019-02-04T12:36:08.479Z,49.50
2019-02-04T12:38:37.655Z,49.70
2019-02-04T12:41:06.829Z,49.70
2019-02-04T12:43:36.241Z,51.00
2019-02-04T12:46:05.579Z,50.10
2019-02-04T12:48:35.374Z,51.60
2019-02-04T12:51:04.560Z,50.60
2019-02-04T12:53:33.699Z,51.40
2019-02-04T12:56:02.906Z,51.00
2019-02-04T12:58:32.110Z,53.10
2019-02-04T13:01:03.088Z,51.60
2019-02-04T13:03:32.552Z,51.10
2019-02-04T13:06:02.915Z,51.50
2019-02-04T13:08:32.144Z,52.70
2019-02-04T13:11:01.339Z,53.70
2019-02-04T13:13:30.537Z,53.20
2019-02-04T13:15:59.748Z,52.90
2019-02-04T13:18:28.969Z,52.40
2019-02-04T13:20:58.187Z,53.30
2019-02-04T13:23:27.412Z,51.80
2019-02-04T13:25:56.642Z,52.30
2019-02-04T13:28:25.890Z,52.60
2019-02-04T13:30:55.141Z,51.60
2019-02-04T13:33:24.635Z,52.20
2019-02-04T13:35:53.794Z,54.10
2019-02-04T13:38:22.952Z,55.70
2019-02-04T13:40:52.164Z,56.20
2019-02-04T13:43:21.456Z,57.60
2019-02-04T13:45:50.672Z,57.50
2019-02-04T13:48:19.898Z,60.60
2019-02-04T13:50:49.069Z,62.70
2019-02-04T13:53:18.144Z,63.60
2019-02-04T13:55:47.341Z,64.80
2019-02-04T13:58:16.435Z,65.50
2019-02-04T14:00:45.635Z,67.60
2019-02-04T14:03:17.615Z,68.80
2019-02-04T14:05:45.623Z,68.60
2019-02-04T14:08:14.800Z,70.00
2019-02-04T14:10:46.211Z,72.30
2019-02-04T14:13:15.196Z,72.70
2019-02-04T14:15:44.392Z,76.30
2019-02-04T14:18:13.597Z,77.70
2019-02-04T14:20:42.821Z,78.50
2019-02-04T14:23:12.013Z,80.90
2019-02-04T14:25:41.199Z,86.10
2019-02-04T14:28:10.448Z,88.40
2019-02-04T14:30:39.754Z,88.20
2019-02-04T14:33:08.931Z,90.20
2019-02-04T14:35:38.107Z,91.60
2019-02-04T14:38:08.378Z,93.10
2019-02-04T14:40:37.931Z,93.40
2019-02-04T14:43:35.135Z,94.40
2019-02-04T14:46:29.471Z,96.30
2019-02-04T14:49:33.477Z,97.30
2019-02-04T14:52:25.877Z,99.80
2019-02-04T14:55:31.246Z,99.90
2019-02-04T14:58:31.532Z,99.90
2019-02-04T15:01:49.926Z,99.90
2019-02-04T15:04:56.446Z,99.90
2019-02-04T15:08:00.748Z,99.90
2019-02-04T15:11:14.329Z,99.90
2019-02-04T15:14:14.926Z,99.90
2019-02-04T15:17:01.140Z,99.90
2019-02-04T15:20:01.140Z,99.90
2019-02-04T15:23:04.864Z,99.90
2019-02-04T15:26:15.573Z,99.90
2019-02-04T15:29:18.767Z,99.90
2019-02-04T15:32:32.039Z,99.90
2019-02-04T15:35:56.739Z,99.90
2019-02-04T15:39:07.327Z,99.90
2019-02-04T15:41:52.416Z,99.90
2019-02-04T15:44:48.308Z,99.90
2019-02-04T15:47:38.413Z,99.90
2019-02-04T15:50:44.600Z,99.90
2019-02-04T15:53:13.788Z,99.90
2019-02-04T15:55:42.968Z,99.90
2019-02-04T15:58:12.164Z,99.90
2019-02-04T16:00:41.304Z,99.90
2019-02-04T16:03:10.488Z,99.90
2019-02-04T16:05:41.642Z,99.90
2019-02-04T16:08:10.556Z,99.90
2019-02-04T16:10:39.696Z,99.90
2019-02-04T16:13:08.996Z,99.90
2019-02-04T16:15:38.180Z,99.90
2019-02-04T16:18:07.390Z,99.90
2019-02-04T16:20:36.584Z,99.90
2019-02-04T16:23:06.404Z,99.90
2019-02-04T16:25:35.581Z,99.90
2019-02-04T16:28:04.774Z,99.90
2019-02-04T16:30:33.993Z,99.90
2019-02-04T16:33:03.183Z,99.90
2019-02-04T16:35:32.297Z,99.90
2019-02-04T16:38:01.464Z,99.90
2019-02-04T16:40:30.650Z,99.90
2019-02-04T16:42:59.828Z,99.90
2019-02-04T16:45:29.011Z,99.90
2019-02-04T16:47:58.213Z,99.90
2019-02-04T16:50:28.502Z,99.90
2019-02-04T16:53:09.675Z,99.90
2019-02-04T16:55:28.570Z,99.90
2019-02-04T16:57:57.737Z,99.90
2019-02-04T17:00:29.080Z,99.90
2019-02-04T17:02:58.244Z,99.90
2019-02-04T17:05:27.630Z,99.90
2019-02-04T17:07:56.727Z,99.90
2019-02-04T17:10:26.204Z,99.90
2019-02-04T17:12:55.525Z,99.90
2019-02-04T17:15:25.745Z,99.90
2019-02-04T17:17:55.065Z,99.90
2019-02-04T17:20:26.639Z,99.90
2019-02-04T17:22:55.825Z,99.90
2019-02-04T17:25:25.020Z,99.90
2019-02-04T17:27:54.215Z,99.90
2019-02-04T17:30:24.220Z,99.90
2019-02-04T17:32:53.395Z,99.90
2019-02-04T17:35:22.587Z,99.90
2019-02-04T17:37:51.796Z,99.90
2019-02-04T17:40:21.773Z,99.90
2019-02-04T17:42:51.388Z,99.90
2019-02-04T17:45:20.484Z,99.90
2019-02-04T17:47:50.211Z,99.90
2019-02-04T17:50:20.004Z,99.90
2019-02-04T17:52:49.368Z,99.90
2019-02-04T17:55:20.419Z,99.90
2019-02-04T17:57:49.651Z,99.90
2019-02-04T18:00:25.637Z,99.90
2019-02-04T18:02:54.849Z,99.90
2019-02-04T18:05:24.004Z,99.90
2019-02-04T18:07:53.184Z,99.90
2019-02-04T18:10:22.383Z,99.90
2019-02-04T18:12:51.864Z,99.90
2019-02-04T18:15:22.087Z,99.90
2019-02-04T18:17:51.231Z,99.90
2019-02-04T18:20:20.442Z,99.90
2019-02-04T18:22:49.621Z,99.90
2019-02-04T18:25:18.847Z,99.90
2019-02-04T18:27:48.061Z,99.90
2019-02-04T18:30:18.348Z,99.90
2019-02-04T18:32:47.533Z,99.90
2019-02-04T18:35:16.751Z,99.90
2019-02-04T18:37:45.916Z,99.90
2019-02-04T18:40:16.563Z,99.90
2019-02-04T18:42:45.968Z,99.90
2019-02-04T18:45:20.107Z,99.90
2019-02-04T18:47:49.511Z,99.90
2019-02-04T18:50:19.092Z,99.90
2019-02-04T18:52:48.695Z,99.90
2019-02-04T18:55:20.616Z,99.90
2019-02-04T18:57:50.611Z,99.90
2019-02-04T19:00:21.705Z,99.90
2019-02-04T19:02:50.898Z,99.90
2019-02-04T19:05:20.375Z,99.90
2019-02-04T19:07:49.591Z,99.90
2019-02-04T19:10:19.822Z,99.90
2019-02-04T19:12:48.986Z,99.90
2019-02-04T19:15:22.719Z,99.90
2019-02-04T19:17:53.869Z,99.90
2019-02-04T19:20:23.339Z,99.90
2019-02-04T19:22:52.464Z,99.90
2019-02-04T19:25:21.789Z,99.90
2019-02-04T19:27:50.982Z,99.90
2019-02-04T19:30:26.329Z,99.90
2019-02-04T19:32:55.835Z,99.90
2019-02-04T19:35:25.086Z,99.90
2019-02-04T19:37:54.203Z,99.90
2019-02-04T19:40:23.375Z,99.90
2019-02-04T19:42:52.574Z,99.90
2019-02-04T19:45:21.816Z,99.90
2019-02-04T19:47:51.308Z,99.90
2019-02-04T19:50:23.193Z,99.90
2019-02-04T19:52:52.383Z,99.90
2019-02-04T19:55:21.516Z,99.90
2019-02-04T19:57:50.712Z,99.90
2019-02-04T20:00:20.775Z,99.90
2019-02-04T20:02:50.356Z,99.90
2019-02-04T20:05:20.905Z,99.90
2019-02-04T20:07:50.092Z,99.90
2019-02-04T20:10:20.864Z,99.90
2019-02-04T20:12:50.051Z,99.90
2019-02-04T20:15:21.704Z,99.90
2019-02-04T20:17:51.184Z,99.90
2019-02-04T20:20:20.471Z,99.90
2019-02-04T20:22:49.664Z,99.90
2019-02-04T20:25:23.843Z,99.90
2019-02-04T20:27:53.031Z,99.90
2019-02-04T20:30:28.066Z,99.90
2019-02-04T20:32:57.244Z,99.90
2019-02-04T20:35:26.455Z,99.90
2019-02-04T20:37:55.669Z,99.90
2019-02-04T20:40:24.876Z,99.90
2019-02-04T20:42:54.061Z,99.90
2019-02-04T20:45:23.647Z,99.90
2019-02-04T20:47:52.913Z,99.90
2019-02-04T20:50:24.719Z,99.90
2019-02-04T20:52:53.982Z,99.90
2019-02-04T20:55:23.200Z,99.90
2019-02-04T20:57:52.356Z,99.90
2019-02-04T21:00:23.956Z,99.90
2019-02-04T21:02:53.129Z,99.90
2019-02-04T21:05:22.351Z,99.90
2019-02-04T21:07:51.588Z,99.90
2019-02-04T21:10:22.189Z,99.90
2019-02-04T21:12:51.434Z,99.90
2019-02-04T21:15:21.555Z,99.90
2019-02-04T21:17:50.872Z,99.90
2019-02-04T21:20:21.997Z,99.90
2019-02-04T21:22:51.204Z,99.90
2019-02-04T21:25:20.545Z,99.90
2019-02-04T21:27:50.178Z,99.90
2019-02-04T21:30:27.291Z,99.90
2019-02-04T21:32:56.542Z,99.90
2019-02-04T21:35:25.791Z,99.90
2019-02-04T21:37:54.992Z,99.90
2019-02-04T21:40:24.158Z,99.90
2019-02-04T21:42:53.383Z,99.90
2019-02-04T21:45:22.576Z,99.90
2019-02-04T21:48:10.986Z,99.90
2019-02-04T21:50:40.246Z,99.90
2019-02-04T21:53:10.091Z,99.90
2019-02-04T21:55:39.409Z,99.90
2019-02-04T21:58:08.639Z,99.90
2019-02-04T22:00:39.626Z,99.90
2019-02-04T22:03:09.063Z,99.90
2019-02-04T22:05:38.321Z,99.90
2019-02-04T22:08:07.949Z,99.90
2019-02-04T22:10:37.215Z,99.90
2019-02-04T22:13:06.465Z,99.90
2019-02-04T22:15:36.020Z,99.90
2019-02-04T22:18:05.662Z,99.90
2019-02-04T22:20:35.224Z,99.90
2019-02-04T22:23:06.226Z,99.90
2019-02-04T22:25:35.464Z,99.90
2019-02-04T22:28:05.130Z,99.90
2019-02-04T22:30:34.342Z,99.90
2019-02-04T22:33:03.613Z,99.90
2019-02-04T22:35:34.053Z,99.90
2019-02-04T22:38:03.355Z,99.90
2019-02-04T22:40:32.541Z,99.90
2019-02-04T22:43:01.756Z,99.90
2019-02-04T22:45:31.165Z,99.90
2019-02-04T22:48:00.324Z,99.90
2019-02-04T22:50:31.001Z,99.90
2019-02-04T22:53:02.291Z,99.90
2019-02-04T22:55:32.588Z,99.90
2019-02-04T22:58:02.239Z,99.90
2019-02-04T23:01:03.592Z,99.90
2019-02-04T23:03:32.803Z,99.90
2019-02-04T23:06:02.024Z,99.90
2019-02-04T23:08:31.279Z,99.90
2019-02-04T23:11:00.512Z,99.90
2019-02-04T23:13:30.003Z,99.90
2019-02-04T23:15:59.264Z,99.90
2019-02-04T23:18:28.622Z,99.90
2019-02-04T23:20:57.864Z,99.90
2019-02-04T23:23:27.064Z,99.90
2019-02-04T23:25:56.297Z,99.90
2019-02-04T23:28:25.718Z,99.90
2019-02-04T23:30:54.961Z,99.90
2019-02-04T23:33:33.933Z,99.90
2019-02-04T23:35:55.203Z,99.90
2019-02-04T23:38:24.464Z,99.90
2019-02-04T23:40:53.697Z,99.90
2019-02-04T23:43:23.442Z,99.90
2019-02-04T23:45:52.724Z,99.90
2019-02-04T23:48:22.079Z,99.90
2019-02-04T23:50:51.272Z,99.90
2019-02-04T23:53:20.505Z,99.90
2019-02-04T23:55:54.661Z,99.90
2019-02-04T23:58:20.743Z,99.90
